createdAt,value
2019-05-20T00:00:02.463Z,91.06
2019-05-20T00:02:31.567Z,91.34
2019-05-20T00:05:00.903Z,91.62
2019-05-20T00:07:29.972Z,91.87
2019-05-20T00:09:59.078Z,91.46
2019-05-20T00:12:28.190Z,90.79
2019-05-20T00:14:57.481Z,90.50
2019-05-20T00:17:26.528Z,90.01
2019-05-20T00:19:55.776Z,90.08
2019-05-20T00:22:25.047Z,89.99
2019-05-20T00:24:54.205Z,89.85
2019-05-20T00:27:23.573Z,89.40
2019-05-20T00:29:52.705Z,89.27
2019-05-20T00:32:21.938Z,89.38
2019-05-20T00:34:51.167Z,89.79
2019-05-20T00:37:20.292Z,90.05
2019-05-20T00:39:49.723Z,90.21
2019-05-20T00:42:18.814Z,90.64
2019-05-20T00:44:48.070Z,90.76
2019-05-20T00:47:17.565Z,91.14
2019-05-20T00:49:46.676Z,91.21
2019-05-20T00:52:15.754Z,90.43
2019-05-20T00:54:45.001Z,90.49
2019-05-20T00:57:14.100Z,90.87
2019-05-20T00:59:43.446Z,91.27
2019-05-20T01:02:12.602Z,91.23
2019-05-20T01:04:41.889Z,90.62
2019-05-20T01:07:11.061Z,90.23
2019-05-20T01:09:40.243Z,90.49
2019-05-20T01:12:09.707Z,90.67
2019-05-20T01:14:38.940Z,90.95
2019-05-20T01:17:08.204Z,91.27
2019-05-20T01:19:37.508Z,90.54
2019-05-20T01:22:06.599Z,90.89
2019-05-20T01:24:35.681Z,91.19
2019-05-20T01:27:04.783Z,91.52
2019-05-20T01:29:34.018Z,91.39
2019-05-20T01:32:03.636Z,91.58
2019-05-20T01:34:32.739Z,91.83
2019-05-20T01:37:01.878Z,91.53
2019-05-20T01:39:31.525Z,91.75
2019-05-20T01:42:00.894Z,91.82
2019-05-20T01:44:30.365Z,91.95
2019-05-20T01:46:59.494Z,91.88
2019-05-20T01:49:28.848Z,92.05
2019-05-20T01:51:58.019Z,91.91
2019-05-20T01:54:27.134Z,91.69
2019-05-20T01:56:56.411Z,91.70
2019-05-20T01:59:25.812Z,91.59
2019-05-20T02:01:54.916Z,92.12
2019-05-20T02:04:24.129Z,91.98
2019-05-20T02:06:53.474Z,92.15
2019-05-20T02:09:22.588Z,92.94
2019-05-20T02:11:51.852Z,93.17
2019-05-20T02:14:24.220Z,93.12
2019-05-20T02:16:53.279Z,93.67
2019-05-20T02:19:22.335Z,93.63
2019-05-20T02:21:51.639Z,93.98
2019-05-20T02:24:20.800Z,94.04
2019-05-20T02:26:50.098Z,94.21
2019-05-20T02:29:19.189Z,94.18
2019-05-20T02:31:48.365Z,94.63
2019-05-20T02:34:17.680Z,94.36
2019-05-20T02:36:46.874Z,94.98
2019-05-20T02:39:16.169Z,95.11
2019-05-20T02:41:45.266Z,95.86
2019-05-20T02:44:14.519Z,95.96
2019-05-20T02:46:43.798Z,96.05
2019-05-20T02:49:12.977Z,96.07
2019-05-20T02:51:42.239Z,96.39
2019-05-20T02:54:11.392Z,96.78
2019-05-20T02:56:40.576Z,96.96
2019-05-20T02:59:09.949Z,97.40
2019-05-20T03:01:39.088Z,97.60
2019-05-20T03:04:12.120Z,97.46
2019-05-20T03:06:39.485Z,97.90
2019-05-20T03:09:12.229Z,98.05
2019-05-20T03:11:39.455Z,98.81
2019-05-20T03:14:08.535Z,98.75
2019-05-20T03:16:37.635Z,98.83
2019-05-20T03:19:06.699Z,99.05
2019-05-20T03:21:35.858Z,98.97
2019-05-20T03:24:04.976Z,99.36
2019-05-20T03:26:34.289Z,99.57
2019-05-20T03:29:03.371Z,99.65
2019-05-20T03:31:32.701Z,100.00
2019-05-20T03:34:01.945Z,100.00
2019-05-20T03:36:31.112Z,99.95
2019-05-20T03:39:00.369Z,100.00
2019-05-20T03:41:29.626Z,100.00
2019-05-20T03:43:58.772Z,100.00
2019-05-20T03:46:28.075Z,100.00
2019-05-20T03:48:57.260Z,100.00
2019-05-20T03:51:26.495Z,100.00
2019-05-20T03:53:55.569Z,100.00
2019-05-20T03:56:24.875Z,100.00
2019-05-20T03:58:54.208Z,100.00
2019-05-20T04:01:23.373Z,100.00
2019-05-20T04:03:52.602Z,100.00
2019-05-20T04:06:21.752Z,100.00
2019-05-20T04:08:50.948Z,100.00
2019-05-20T04:11:20.293Z,100.00
2019-05-20T04:13:49.448Z,100.00
2019-05-20T04:16:18.704Z,100.00
2019-05-20T04:18:47.812Z,100.00
2019-05-20T04:21:17.077Z,100.00
2019-05-20T04:23:46.378Z,100.00
2019-05-20T04:26:15.522Z,100.00
2019-05-20T04:28:44.868Z,100.00
2019-05-20T04:31:13.983Z,100.00
2019-05-20T04:33:43.207Z,100.00
2019-05-20T04:36:12.496Z,100.00
2019-05-20T04:38:41.689Z,100.00
2019-05-20T04:41:10.896Z,100.00
2019-05-20T04:43:40.203Z,100.00
2019-05-20T04:46:09.438Z,100.00
2019-05-20T04:48:38.699Z,100.00
2019-05-20T04:51:07.784Z,100.00
2019-05-20T04:53:37.043Z,100.00
2019-05-20T04:56:06.277Z,100.00
2019-05-20T04:58:35.421Z,100.00
2019-05-20T05:01:04.761Z,100.00
2019-05-20T05:03:33.913Z,100.00
2019-05-20T05:06:03.037Z,100.00
2019-05-20T05:08:32.377Z,100.00
2019-05-20T05:11:01.472Z,100.00
2019-05-20T05:13:30.807Z,100.00
2019-05-20T05:15:59.972Z,100.00
2019-05-20T05:18:29.155Z,100.00
2019-05-20T05:20:58.497Z,100.00
2019-05-20T05:23:27.757Z,100.00
2019-05-20T05:25:56.913Z,98.86
2019-05-20T05:28:26.085Z,99.13
2019-05-20T05:30:55.266Z,99.94
2019-05-20T05:33:24.615Z,99.69
2019-05-20T05:35:54.017Z,99.00
2019-05-20T05:38:23.068Z,97.92
2019-05-20T05:40:52.249Z,97.64
2019-05-20T05:43:21.424Z,97.03
2019-05-20T05:45:50.761Z,97.17
2019-05-20T05:48:19.928Z,96.38
2019-05-20T05:50:49.203Z,96.65
2019-05-20T05:53:18.594Z,96.83
2019-05-20T05:55:47.722Z,96.96
2019-05-20T05:58:16.886Z,95.80
2019-05-20T06:00:46.023Z,95.08
2019-05-20T06:03:15.282Z,95.39
2019-05-20T06:05:44.434Z,94.58
2019-05-20T06:08:13.733Z,93.95
2019-05-20T06:10:42.883Z,94.54
2019-05-20T06:13:12.033Z,94.26
2019-05-20T06:15:41.394Z,94.53
2019-05-20T06:18:10.493Z,93.93
2019-05-20T06:20:39.713Z,93.87
2019-05-20T06:23:09.058Z,93.73
2019-05-20T06:25:38.193Z,93.99
2019-05-20T06:28:07.432Z,93.40
2019-05-20T06:30:42.093Z,93.47
2019-05-20T06:33:11.753Z,92.96
2019-05-20T06:35:41.085Z,93.86
2019-05-20T06:38:18.653Z,93.59
2019-05-20T06:40:47.736Z,92.97
2019-05-20T06:43:16.849Z,92.14
2019-05-20T06:45:45.946Z,91.18
2019-05-20T06:48:15.864Z,91.38
2019-05-20T06:50:45.135Z,91.61
2019-05-20T06:53:14.289Z,91.60
2019-05-20T06:55:43.564Z,91.50
2019-05-20T06:58:12.867Z,91.90
2019-05-20T07:00:42.379Z,91.27
2019-05-20T07:03:11.461Z,91.75
2019-05-20T07:05:40.539Z,91.61
2019-05-20T07:08:09.646Z,91.41
2019-05-20T07:10:38.701Z,91.20
2019-05-20T07:13:07.962Z,91.78
2019-05-20T07:15:37.416Z,90.54
2019-05-20T07:18:06.560Z,91.13
2019-05-20T07:20:35.690Z,90.43
2019-05-20T07:23:04.898Z,90.67
2019-05-20T07:25:34.128Z,90.22
2019-05-20T07:28:03.509Z,89.12
2019-05-20T07:30:32.637Z,89.97
2019-05-20T07:33:01.974Z,89.32
2019-05-20T07:35:31.368Z,88.49
2019-05-20T07:38:00.585Z,88.13
2019-05-20T07:40:33.434Z,87.30
2019-05-20T07:43:03.683Z,87.06
2019-05-20T07:45:35.353Z,87.60
2019-05-20T07:48:06.203Z,86.74
2019-05-20T07:50:37.332Z,87.12
2019-05-20T07:53:06.936Z,86.55
2019-05-20T07:55:40.925Z,86.72
2019-05-20T07:58:10.772Z,87.01
2019-05-20T08:00:39.934Z,86.66
2019-05-20T08:03:09.119Z,86.21
2019-05-20T08:05:38.253Z,86.45
2019-05-20T08:08:07.629Z,86.56
2019-05-20T08:10:36.736Z,85.20
2019-05-20T08:13:06.011Z,85.12
2019-05-20T08:15:35.301Z,85.47
2019-05-20T08:18:04.521Z,84.44
2019-05-20T08:20:33.697Z,84.48
2019-05-20T08:23:03.043Z,83.78
2019-05-20T08:25:32.160Z,82.75
2019-05-20T08:28:01.306Z,81.69
2019-05-20T08:30:33.714Z,81.83
2019-05-20T08:33:02.794Z,81.79
2019-05-20T08:35:32.103Z,82.15
2019-05-20T08:38:01.145Z,82.53
2019-05-20T08:40:30.230Z,81.22
2019-05-20T08:42:59.556Z,81.67
2019-05-20T08:45:28.915Z,80.91
2019-05-20T08:48:00.085Z,80.40
2019-05-20T08:50:29.179Z,81.70
2019-05-20T08:52:58.374Z,80.35
2019-05-20T08:55:27.684Z,81.11
2019-05-20T08:57:56.775Z,81.75
2019-05-20T09:00:26.373Z,81.45
2019-05-20T09:02:55.394Z,81.44
2019-05-20T09:05:27.851Z,81.59
2019-05-20T09:08:02.929Z,81.65
2019-05-20T09:10:26.901Z,82.83
2019-05-20T09:12:56.023Z,82.17
2019-05-20T09:15:25.240Z,82.71
2019-05-20T09:17:54.352Z,83.17
2019-05-20T09:20:23.846Z,82.32
2019-05-20T09:22:53.013Z,80.47
2019-05-20T09:25:31.329Z,80.10
2019-05-20T09:28:01.614Z,79.08
2019-05-20T09:30:30.692Z,80.26
2019-05-20T09:32:59.787Z,80.59
2019-05-20T09:35:29.027Z,79.90
2019-05-20T09:37:58.162Z,79.35
2019-05-20T09:40:41.004Z,79.52
2019-05-20T09:43:10.138Z,79.46
2019-05-20T09:45:39.285Z,80.36
2019-05-20T09:48:08.761Z,79.87
2019-05-20T09:50:37.779Z,79.55
2019-05-20T09:53:07.791Z,80.34
2019-05-20T09:55:37.310Z,79.90
2019-05-20T09:58:06.605Z,81.04
2019-05-20T10:00:35.868Z,80.96
2019-05-20T10:03:06.013Z,81.71
2019-05-20T10:05:37.470Z,81.15
2019-05-20T10:08:07.423Z,81.32
2019-05-20T10:10:36.744Z,82.10
2019-05-20T10:13:06.103Z,80.93
2019-05-20T10:15:35.343Z,81.04
2019-05-20T10:18:04.447Z,81.74
2019-05-20T10:20:33.591Z,82.14
2019-05-20T10:23:02.670Z,82.50
2019-05-20T10:25:31.756Z,81.34
2019-05-20T10:28:00.898Z,81.89
2019-05-20T10:30:30.240Z,80.62
2019-05-20T10:32:59.454Z,81.89
2019-05-20T10:35:28.727Z,82.55
2019-05-20T10:37:58.028Z,81.66
2019-05-20T10:40:29.093Z,82.21
2019-05-20T10:42:59.380Z,82.99
2019-05-20T10:45:30.400Z,83.75
2019-05-20T10:48:00.334Z,81.59
2019-05-20T10:50:29.760Z,81.83
2019-05-20T10:52:59.089Z,81.41
2019-05-20T10:55:28.325Z,81.30
2019-05-20T10:57:57.485Z,82.61
2019-05-20T11:00:28.634Z,83.03
2019-05-20T11:02:59.784Z,81.08
2019-05-20T11:05:30.762Z,82.53
2019-05-20T11:08:01.368Z,82.29
2019-05-20T11:10:31.374Z,81.42
2019-05-20T11:13:00.901Z,81.27
2019-05-20T11:15:30.016Z,81.52
2019-05-20T11:17:59.202Z,80.47
2019-05-20T11:20:28.419Z,80.83
2019-05-20T11:23:00.879Z,81.30
2019-05-20T11:25:28.785Z,81.74
2019-05-20T11:27:58.057Z,82.58
2019-05-20T11:30:27.298Z,80.71
2019-05-20T11:32:56.426Z,80.85
2019-05-20T11:35:25.681Z,82.02
2019-05-20T11:37:54.842Z,81.26
2019-05-20T11:40:24.049Z,82.19
2019-05-20T11:42:53.266Z,81.50
2019-05-20T11:45:22.391Z,81.56
2019-05-20T11:47:52.648Z,81.49
2019-05-20T11:50:21.874Z,81.80
2019-05-20T11:52:51.116Z,81.27
2019-05-20T11:55:20.328Z,81.33
2019-05-20T11:57:49.483Z,80.59
2019-05-20T12:00:18.971Z,81.12
2019-05-20T12:02:48.102Z,81.90
2019-05-20T12:05:17.498Z,80.61
2019-05-20T12:07:46.757Z,81.03
2019-05-20T12:10:16.250Z,81.41
2019-05-20T12:12:46.132Z,82.14
2019-05-20T12:15:16.452Z,80.97
2019-05-20T12:17:45.537Z,81.85
2019-05-20T12:20:14.738Z,81.74
2019-05-20T12:22:43.926Z,81.12
2019-05-20T12:25:13.022Z,80.38
2019-05-20T12:27:42.152Z,78.22
2019-05-20T12:30:11.557Z,78.69
2019-05-20T12:32:40.728Z,78.42
2019-05-20T12:35:10.389Z,78.82
2019-05-20T12:37:39.533Z,78.10
2019-05-20T12:40:08.980Z,77.15
2019-05-20T12:42:38.410Z,77.86
2019-05-20T12:45:09.910Z,78.62
2019-05-20T12:47:39.079Z,78.80
2019-05-20T12:50:09.383Z,78.30
2019-05-20T12:52:40.377Z,78.85
2019-05-20T12:55:10.349Z,78.94
2019-05-20T12:57:39.955Z,79.65
2019-05-20T13:00:10.071Z,79.73
2019-05-20T13:02:39.205Z,80.98
2019-05-20T13:05:08.642Z,83.07
2019-05-20T13:07:37.796Z,83.72
2019-05-20T13:10:25.950Z,85.47
2019-05-20T13:12:39.494Z,85.19
2019-05-20T13:15:08.952Z,84.32
2019-05-20T13:17:44.375Z,84.45
2019-05-20T13:20:10.425Z,84.82
2019-05-20T13:22:39.782Z,85.34
2019-05-20T13:25:08.971Z,84.39
2019-05-20T13:27:38.655Z,84.04
2019-05-20T13:30:08.221Z,85.34
2019-05-20T13:32:37.562Z,85.02
2019-05-20T13:35:06.706Z,85.93
2019-05-20T13:37:37.297Z,86.65
2019-05-20T13:40:06.470Z,87.11
2019-05-20T13:42:35.658Z,88.89
2019-05-20T13:45:04.880Z,90.37
2019-05-20T13:47:36.023Z,90.83
2019-05-20T13:50:07.645Z,92.14
2019-05-20T13:52:36.754Z,93.14
2019-05-20T13:55:05.964Z,93.54
2019-05-20T13:57:35.058Z,94.79
2019-05-20T14:00:04.268Z,95.27
2019-05-20T14:02:33.389Z,94.76
2019-05-20T14:05:02.524Z,93.92
2019-05-20T14:07:32.503Z,94.03
2019-05-20T14:10:01.795Z,92.68
2019-05-20T14:12:30.896Z,92.42
2019-05-20T14:15:00.272Z,92.83
2019-05-20T14:17:29.647Z,92.38
2019-05-20T14:19:58.977Z,90.07
2019-05-20T14:22:28.070Z,88.70
2019-05-20T14:24:57.165Z,90.08
2019-05-20T14:27:26.461Z,90.79
2019-05-20T14:29:55.608Z,89.08
2019-05-20T14:32:24.694Z,88.82
2019-05-20T14:34:54.318Z,88.88
2019-05-20T14:37:23.402Z,89.45
2019-05-20T14:39:52.483Z,91.48
2019-05-20T14:42:25.271Z,90.37
2019-05-20T14:44:52.791Z,91.39
2019-05-20T14:47:22.049Z,89.82
2019-05-20T14:49:51.525Z,88.97
2019-05-20T14:52:20.703Z,88.27
2019-05-20T14:54:49.900Z,88.35
2019-05-20T14:57:19.082Z,88.09
2019-05-20T14:59:48.541Z,88.38
2019-05-20T15:02:18.278Z,89.46
2019-05-20T15:04:47.575Z,88.95
2019-05-20T15:07:29.313Z,89.86
2019-05-20T15:09:51.777Z,88.83
2019-05-20T15:12:21.092Z,88.79
2019-05-20T15:14:50.283Z,89.10
2019-05-20T15:17:19.561Z,90.33
2019-05-20T15:19:48.619Z,90.93
2019-05-20T15:22:17.943Z,91.54
2019-05-20T15:24:47.128Z,90.69
2019-05-20T15:27:16.453Z,90.89
2019-05-20T15:29:45.582Z,89.31
2019-05-20T15:32:14.779Z,90.37
2019-05-20T15:34:44.057Z,89.94
2019-05-20T15:37:13.416Z,88.88
2019-05-20T15:39:42.550Z,89.51
2019-05-20T15:42:11.811Z,90.93
2019-05-20T15:44:40.900Z,92.08
2019-05-20T15:47:10.250Z,92.12
2019-05-20T15:49:39.384Z,92.29
2019-05-20T15:52:08.644Z,92.81
2019-05-20T15:54:37.783Z,92.42
2019-05-20T15:57:09.956Z,92.11
2019-05-20T15:59:46.178Z,92.91
2019-05-20T16:02:10.390Z,92.84
2019-05-20T16:04:39.645Z,93.09
2019-05-20T16:07:08.896Z,93.26
2019-05-20T16:09:38.070Z,93.88
2019-05-20T16:12:07.252Z,94.39
2019-05-20T16:14:36.525Z,93.93
2019-05-20T16:17:05.728Z,94.31
2019-05-20T16:19:34.946Z,94.52
2019-05-20T16:22:04.230Z,94.84
2019-05-20T16:24:33.365Z,95.03
2019-05-20T16:27:02.658Z,95.30
2019-05-20T16:29:31.807Z,96.12
2019-05-20T16:32:01.090Z,96.80
2019-05-20T16:34:30.211Z,96.91
2019-05-20T16:36:59.390Z,97.11
2019-05-20T16:39:30.969Z,96.39
2019-05-20T16:41:59.483Z,96.37
2019-05-20T16:44:28.606Z,96.58
2019-05-20T16:46:57.678Z,96.92
2019-05-20T16:49:26.793Z,97.04
2019-05-20T16:51:55.864Z,97.18
2019-05-20T16:54:25.131Z,97.54
2019-05-20T16:56:54.225Z,97.55
2019-05-20T16:59:23.355Z,97.40
2019-05-20T17:01:52.770Z,98.14
2019-05-20T17:04:21.934Z,98.16
2019-05-20T17:06:51.085Z,98.07
2019-05-20T17:09:21.438Z,97.91
2019-05-20T17:11:50.628Z,98.63
2019-05-20T17:14:22.049Z,98.22
2019-05-20T17:16:51.212Z,98.45
2019-05-20T17:19:20.355Z,98.47
2019-05-20T17:21:49.486Z,98.46
2019-05-20T17:24:18.648Z,98.53
2019-05-20T17:26:47.828Z,98.40
2019-05-20T17:29:17.179Z,98.12
2019-05-20T17:31:46.398Z,97.83
2019-05-20T17:34:15.585Z,96.58
2019-05-20T17:36:44.775Z,96.39
2019-05-20T17:39:14.151Z,95.97
2019-05-20T17:41:44.850Z,95.41
2019-05-20T17:44:14.473Z,96.01
2019-05-20T17:46:43.616Z,96.01
2019-05-20T17:49:12.797Z,95.91
2019-05-20T17:51:43.387Z,94.13
2019-05-20T17:54:12.720Z,95.22
2019-05-20T17:56:42.209Z,95.74
2019-05-20T17:59:11.723Z,96.77
2019-05-20T18:01:40.876Z,97.23
2019-05-20T18:04:10.041Z,97.75
2019-05-20T18:06:39.359Z,97.76
2019-05-20T18:09:09.091Z,98.03
2019-05-20T18:11:38.530Z,98.00
2019-05-20T18:14:07.735Z,98.10
2019-05-20T18:16:37.261Z,98.09
2019-05-20T18:19:06.477Z,98.14
2019-05-20T18:21:35.678Z,97.50
2019-05-20T18:24:04.853Z,96.92
2019-05-20T18:26:34.017Z,96.33
2019-05-20T18:29:03.446Z,96.44
2019-05-20T18:31:33.203Z,95.78
2019-05-20T18:34:02.619Z,96.12
2019-05-20T18:36:31.914Z,96.26
2019-05-20T18:39:01.183Z,96.64
2019-05-20T18:41:30.413Z,96.69
2019-05-20T18:43:59.533Z,96.75
2019-05-20T18:46:28.707Z,97.60
2019-05-20T18:48:57.986Z,96.23
2019-05-20T18:51:27.245Z,97.17
2019-05-20T18:53:56.413Z,96.92
2019-05-20T18:56:25.734Z,96.93
2019-05-20T18:58:55.094Z,98.21
2019-05-20T19:01:24.349Z,99.63
2019-05-20T19:03:53.473Z,100.00
2019-05-20T19:06:23.303Z,100.00
2019-05-20T19:08:52.669Z,100.00
2019-05-20T19:11:22.013Z,100.00
2019-05-20T19:13:51.322Z,100.00
2019-05-20T19:16:20.521Z,100.00
2019-05-20T19:18:50.600Z,100.00
2019-05-20T19:21:19.944Z,100.00
2019-05-20T19:23:49.042Z,100.00
2019-05-20T19:26:36.941Z,100.00
2019-05-20T19:29:06.096Z,100.00
2019-05-20T19:31:35.254Z,100.00
2019-05-20T19:34:04.463Z,100.00
2019-05-20T19:36:33.759Z,100.00
2019-05-20T19:39:02.943Z,100.00
2019-05-20T19:41:32.093Z,100.00
2019-05-20T19:44:01.339Z,100.00
2019-05-20T19:46:30.599Z,100.00
2019-05-20T19:48:59.934Z,100.00
2019-05-20T19:51:29.063Z,100.00
2019-05-20T19:53:58.215Z,100.00
2019-05-20T19:56:27.422Z,100.00
2019-05-20T19:58:56.629Z,100.00
2019-05-20T20:01:25.911Z,100.00
2019-05-20T20:03:55.084Z,100.00
2019-05-20T20:06:24.487Z,100.00
2019-05-20T20:08:53.715Z,100.00
2019-05-20T20:11:22.910Z,100.00
2019-05-20T20:13:52.133Z,100.00
2019-05-20T20:16:21.353Z,100.00
2019-05-20T20:18:50.485Z,100.00
2019-05-20T20:21:19.596Z,100.00
2019-05-20T20:23:48.933Z,100.00
2019-05-20T20:26:18.151Z,100.00
2019-05-20T20:28:47.283Z,100.00
2019-05-20T20:31:16.641Z,100.00
2019-05-20T20:33:45.890Z,100.00
2019-05-20T20:36:15.114Z,100.00
2019-05-20T20:38:44.292Z,100.00
2019-05-20T20:41:13.471Z,100.00
2019-05-20T20:43:42.737Z,100.00
2019-05-20T20:46:12.046Z,100.00
2019-05-20T20:48:42.033Z,100.00
2019-05-20T20:51:11.361Z,100.00
2019-05-20T20:53:40.668Z,100.00
2019-05-20T20:56:24.159Z,100.00
2019-05-20T20:58:40.928Z,100.00
2019-05-20T21:01:10.316Z,100.00
2019-05-20T21:03:39.495Z,100.00
2019-05-20T21:06:08.652Z,100.00
2019-05-20T21:08:38.041Z,100.00
2019-05-20T21:11:07.153Z,100.00
2019-05-20T21:13:36.315Z,100.00
2019-05-20T21:16:05.515Z,100.00
2019-05-20T21:18:34.741Z,100.00
2019-05-20T21:21:03.940Z,100.00
2019-05-20T21:23:33.113Z,100.00
2019-05-20T21:26:02.483Z,100.00
2019-05-20T21:28:31.579Z,100.00
2019-05-20T21:31:00.800Z,100.00
2019-05-20T21:33:29.960Z,100.00
2019-05-20T21:35:59.262Z,100.00
2019-05-20T21:38:28.479Z,100.00
2019-05-20T21:40:57.595Z,100.00
2019-05-20T21:43:26.992Z,100.00
2019-05-20T21:45:56.190Z,100.00
2019-05-20T21:48:25.580Z,100.00
2019-05-20T21:50:54.688Z,100.00
2019-05-20T21:53:23.863Z,100.00
2019-05-20T21:55:53.107Z,100.00
2019-05-20T21:58:22.192Z,100.00
2019-05-20T22:00:54.623Z,100.00
2019-05-20T22:03:25.048Z,100.00
2019-05-20T22:05:54.970Z,100.00
2019-05-20T22:08:24.131Z,100.00
2019-05-20T22:10:53.296Z,100.00
2019-05-20T22:13:22.400Z,100.00
2019-05-20T22:15:51.641Z,100.00
2019-05-20T22:18:20.974Z,100.00
2019-05-20T22:20:50.212Z,100.00
2019-05-20T22:23:39.688Z,100.00
2019-05-20T22:26:09.195Z,100.00
2019-05-20T22:28:38.284Z,100.00
2019-05-20T22:31:07.413Z,100.00
2019-05-20T22:33:41.345Z,100.00
2019-05-20T22:36:07.792Z,100.00
2019-05-20T22:38:37.239Z,100.00
2019-05-20T22:41:06.313Z,100.00
2019-05-20T22:43:35.459Z,100.00
2019-05-20T22:46:04.803Z,100.00
2019-05-20T22:48:34.003Z,100.00
2019-05-20T22:51:03.290Z,100.00
2019-05-20T22:53:32.459Z,100.00
2019-05-20T22:56:01.685Z,100.00
2019-05-20T22:58:30.962Z,100.00
2019-05-20T23:01:00.110Z,100.00
2019-05-20T23:03:29.341Z,100.00
2019-05-20T23:05:58.660Z,100.00
2019-05-20T23:08:27.775Z,100.00
2019-05-20T23:10:57.028Z,100.00
2019-05-20T23:13:26.212Z,100.00
2019-05-20T23:15:55.867Z,100.00
2019-05-20T23:18:24.932Z,100.00
2019-05-20T23:20:54.022Z,100.00
2019-05-20T23:23:23.117Z,100.00
2019-05-20T23:25:52.926Z,100.00
2019-05-20T23:28:22.516Z,100.00
2019-05-20T23:30:51.764Z,100.00
2019-05-20T23:33:21.104Z,100.00
2019-05-20T23:35:50.211Z,100.00
2019-05-20T23:38:19.429Z,100.00
2019-05-20T23:40:48.633Z,100.00
2019-05-20T23:43:17.739Z,100.00
2019-05-20T23:45:47.182Z,100.00
2019-05-20T23:48:16.261Z,100.00
2019-05-20T23:50:45.515Z,100.00
2019-05-20T23:53:14.763Z,100.00
2019-05-20T23:55:44.267Z,100.00
2019-05-20T23:58:13.367Z,100.00
